Time;durP1;ratioP1;P1;durP2;ratioP2;P2;SDS_P1;SDS_P2;PMS_P1;PMS_P2;Temp;Humidity;BMP_temperature;BMP_pressure;BME280_temperature;BME280_humidity;BME280_pressure;Samples;Min_cycle;Max_cycle;Signal;HPM_P1;HPM_P2
2021/12/08 00:01:00;;;;;;;1999.90;999.90;;;;;;;-3.43;62.14;100149.78;4938348;28;98224;-74
2021/12/08 00:03:30;;;;;;;1999.90;999.90;;;;;;;-3.44;62.06;100138.47;4940930;28;97386;-73
2021/12/08 00:05:59;;;;;;;1999.90;999.90;;;;;;;-3.46;61.85;100131.41;4938243;28;100923;-73
2021/12/08 00:08:29;;;;;;;1999.90;999.90;;;;;;;-3.47;62.20;100119.16;4942778;28;97993;-74
2021/12/08 00:13:45;;;;;;;1999.90;999.90;;;;;;;-3.52;62.69;100116.28;4942264;28;97578;-74
2021/12/08 00:16:13;;;;;;;1999.90;999.90;;;;;;;-3.52;62.14;100102.38;4942168;28;98836;-74
2021/12/08 00:18:47;;;;;;;1999.90;999.90;;;;;;;-3.56;62.38;100103.88;4942149;28;98139;-74
2021/12/08 00:21:17;;;;;;;1999.90;999.90;;;;;;;-3.57;62.06;100095.97;4944259;28;97757;-76
2021/12/08 00:23:45;;;;;;;1999.90;999.90;;;;;;;-3.62;62.46;100084.38;4942937;28;96868;-74
2021/12/08 00:26:13;;;;;;;1999.90;999.90;;;;;;;-3.63;62.48;100092.97;4925461;28;99264;-75
2021/12/08 00:28:41;;;;;;;1999.90;999.90;;;;;;;-3.63;62.55;100086.09;4940344;28;98230;-73
2021/12/08 00:31:10;;;;;;;1999.90;999.90;;;;;;;-3.63;62.46;100069.56;4940436;28;97215;-70
2021/12/08 00:33:38;;;;;;;1999.90;999.90;;;;;;;-3.59;62.42;100066.38;4956823;28;97274;-71
2021/12/08 00:36:10;;;;;;;1999.90;999.90;;;;;;;-3.55;62.98;100065.78;4939679;28;101592;-72
2021/12/08 00:38:38;;;;;;;1999.90;999.90;;;;;;;-3.50;63.03;100069.59;4942081;28;98028;-71
2021/12/08 00:41:07;;;;;;;1999.90;999.90;;;;;;;-3.47;62.96;100052.47;4940328;28;97430;-74
2021/12/08 00:43:34;;;;;;;1999.90;999.90;;;;;;;-3.42;62.45;100045.00;4924677;28;98105;-72
2021/12/08 00:46:03;;;;;;;1999.90;999.90;;;;;;;-3.40;62.35;100030.38;4941158;28;98997;-74
2021/12/08 00:48:32;;;;;;;1999.90;999.90;;;;;;;-3.42;62.30;100024.19;4941793;28;97716;-73
2021/12/08 00:51:00;;;;;;;1999.90;999.90;;;;;;;-3.38;62.12;100020.94;4924456;28;97801;-74
2021/12/08 00:53:28;;;;;;;1999.90;999.90;;;;;;;-3.39;62.24;100019.16;4940122;28;97836;-75
2021/12/08 00:55:56;;;;;;;1999.90;999.90;;;;;;;-3.36;62.07;99998.53;4931648;28;97759;-73
2021/12/08 00:58:24;;;;;;;1999.90;999.90;;;;;;;-3.37;62.13;99991.56;4942055;28;100970;-72
2021/12/08 01:00:53;;;;;;;1999.90;999.90;;;;;;;-3.38;62.60;99987.13;4941238;28;97811;-72
2021/12/08 01:03:21;;;;;;;1999.90;999.90;;;;;;;-3.44;62.50;99971.19;4940400;28;97414;-73
2021/12/08 01:05:52;;;;;;;1999.90;999.90;;;;;;;-3.43;62.19;99966.06;4938635;28;98560;-74
2021/12/08 01:08:22;;;;;;;1999.90;999.90;;;;;;;-3.41;62.35;99968.75;4943130;28;97559;-75
2021/12/08 01:10:52;;;;;;;1999.90;999.90;;;;;;;-3.44;62.51;99966.84;4942379;28;97307;-75
2021/12/08 01:13:23;;;;;;;1999.90;999.90;;;;;;;-3.41;61.95;99950.56;4939610;28;97298;-74
2021/12/08 01:15:53;;;;;;;1999.90;999.90;;;;;;;-3.42;62.36;99940.97;4940309;28;98718;-74
2021/12/08 01:18:22;;;;;;;1999.90;999.90;;;;;;;-3.42;62.33;99936.66;4941037;28;98004;-75
2021/12/08 01:20:56;;;;;;;1999.90;999.90;;;;;;;-3.43;62.53;99937.47;4958372;28;97306;-75
2021/12/08 01:23:25;;;;;;;1999.90;999.90;;;;;;;-3.47;62.82;99924.16;4940952;28;97926;-76
2021/12/08 01:25:54;;;;;;;1999.90;999.90;;;;;;;-3.46;62.33;99918.16;4940805;28;98630;-74
2021/12/08 01:28:23;;;;;;;1999.90;999.90;;;;;;;-3.50;62.93;99926.56;4932822;28;100634;-75
2021/12/08 01:30:54;;;;;;;1999.90;999.90;;;;;;;-3.51;62.99;99932.59;4939611;28;97095;-74
2021/12/08 01:33:23;;;;;;;1999.90;999.90;;;;;;;-3.48;62.70;99924.97;4941123;28;97974;-73
2021/12/08 01:35:53;;;;;;;1999.90;999.90;;;;;;;-3.46;62.51;99925.97;4941924;28;97683;-74
2021/12/08 01:38:22;;;;;;;1999.90;999.90;;;;;;;-3.45;62.36;99920.88;4942240;28;98658;-72
2021/12/08 01:40:50;;;;;;;1999.90;999.90;;;;;;;-3.47;62.58;99929.34;4941405;28;97149;-73
2021/12/08 01:43:25;;;;;;;1999.90;999.90;;;;;;;-3.49;62.63;99926.66;4947072;28;98169;-73
2021/12/08 01:46:00;;;;;;;1999.90;999.90;;;;;;;-3.47;62.88;99953.66;4949585;28;97587;-73
2021/12/08 01:48:34;;;;;;;1999.90;999.90;;;;;;;-3.45;62.12;99952.06;4951003;28;97945;-73
2021/12/08 01:51:09;;;;;;;1999.90;999.90;;;;;;;-3.42;62.23;99969.56;4947588;28;96980;-73
2021/12/08 01:53:37;;;;;;;1999.90;999.90;;;;;;;-3.39;62.02;99973.25;4947045;28;97458;-74
2021/12/08 01:56:06;;;;;;;1999.90;999.90;;;;;;;-3.36;62.22;99964.72;4942305;28;97671;-73
2021/12/08 01:58:34;;;;;;;1999.90;999.90;;;;;;;-3.33;62.44;99970.16;4942641;28;98983;-73
2021/12/08 02:01:05;;;;;;;1999.90;999.90;;;;;;;-3.31;62.06;99982.44;4943062;28;97276;-73
2021/12/08 02:03:34;;;;;;;1999.90;999.90;;;;;;;-3.30;62.04;99972.94;4940995;28;97692;-73
2021/12/08 02:06:06;;;;;;;1999.90;999.90;;;;;;;-3.28;61.90;99971.31;4940101;28;98010;-73
2021/12/08 02:08:35;;;;;;;1999.90;999.90;;;;;;;-3.25;62.52;99969.81;4939051;28;99199;-73
2021/12/08 02:11:04;;;;;;;1999.90;999.90;;;;;;;-3.24;62.12;99958.59;4941268;28;96983;-73
2021/12/08 02:13:37;;;;;;;1999.90;999.90;;;;;;;-3.26;62.28;99964.53;4924305;28;97163;-73
2021/12/08 02:16:08;;;;;;;1999.90;999.90;;;;;;;-3.31;62.63;99964.22;4940029;28;97696;-72
2021/12/08 02:18:36;;;;;;;1999.90;999.90;;;;;;;-3.34;62.19;99961.44;4939964;28;98951;-72
2021/12/08 02:21:06;;;;;;;1999.90;999.90;;;;;;;-3.32;62.16;99958.94;4938711;28;97243;-73
2021/12/08 02:23:34;;;;;;;1999.90;999.90;;;;;;;-3.32;62.19;99965.03;4940446;28;98015;-74
2021/12/08 02:26:03;;;;;;;1999.90;999.90;;;;;;;-3.27;62.39;99961.00;4942016;28;97798;-74
2021/12/08 02:28:30;;;;;;;1999.90;999.90;;;;;;;-3.28;62.35;99955.72;4942566;28;99408;-75
2021/12/08 02:31:03;;;;;;;1999.90;999.90;;;;;;;-3.28;62.33;99956.63;4943044;28;97379;-72
2021/12/08 02:47:31;;;;;;;1999.90;999.90;;;;;;;-3.37;62.37;99935.25;4943174;28;98777;-74
2021/12/08 02:49:59;;;;;;;1999.90;999.90;;;;;;;-3.35;62.46;99938.81;4942500;28;99143;-73
2021/12/08 02:52:28;;;;;;;1999.90;999.90;;;;;;;-3.40;62.00;99931.56;4941860;28;97190;-74
2021/12/08 02:55:03;;;;;;;1999.90;999.90;;;;;;;-3.43;62.25;99918.34;4942526;28;97672;-73
2021/12/08 02:57:31;;;;;;;1999.90;999.90;;;;;;;-3.42;62.45;99930.56;4939118;28;98952;-73
2021/12/08 02:59:59;;;;;;;1999.90;999.90;;;;;;;-3.44;62.40;99912.25;4942275;28;98807;-74
2021/12/08 03:02:27;;;;;;;1999.90;999.90;;;;;;;-3.41;62.19;99906.34;4946260;28;98198;-72
2021/12/08 03:04:55;;;;;;;1999.90;999.90;;;;;;;-3.42;62.19;99901.97;4928348;28;99688;-73
2021/12/08 03:07:22;;;;;;;1999.90;999.90;;;;;;;-3.45;62.09;99902.66;4940067;28;99119;-74
2021/12/08 03:09:52;;;;;;;1999.90;999.90;;;;;;;-3.44;62.10;99901.84;4939141;28;97863;-73
2021/12/08 03:12:28;;;;;;;1999.90;999.90;;;;;;;-3.48;62.27;99905.09;4942023;28;97768;-74
2021/12/08 03:14:56;;;;;;;1999.90;999.90;;;;;;;-3.46;62.10;99899.97;4940875;28;98401;-74
2021/12/08 03:17:24;;;;;;;1999.90;999.90;;;;;;;-3.44;62.20;99899.25;4940823;28;100342;-73
2021/12/08 03:19:52;;;;;;;1999.90;999.90;;;;;;;-3.42;61.85;99884.63;4941810;28;98022;-74
2021/12/08 03:22:20;;;;;;;1999.90;999.90;;;;;;;-3.43;62.36;99884.56;4944100;28;98590;-74
2021/12/08 03:24:50;;;;;;;1999.90;999.90;;;;;;;-3.46;62.02;99885.28;4940366;28;98192;-75
2021/12/08 03:27:26;;;;;;;1999.90;999.90;;;;;;;-3.50;62.25;99878.09;4940665;28;100887;-75
2021/12/08 03:29:57;;;;;;;1999.90;999.90;;;;;;;-3.53;61.97;99874.41;4943192;28;97682;-74
2021/12/08 03:32:31;;;;;;;1999.90;999.90;;;;;;;-3.59;62.22;99858.41;4940379;28;97822;-74
2021/12/08 03:34:59;;;;;;;1999.90;999.90;;;;;;;-3.59;62.28;99859.31;4940092;28;97709;-72
2021/12/08 03:37:29;;;;;;;1999.90;999.90;;;;;;;-3.60;62.01;99854.03;4942198;28;97428;-72
2021/12/08 03:40:00;;;;;;;1999.90;999.90;;;;;;;-3.62;62.67;99863.44;4942897;28;98907;-73
2021/12/08 03:42:34;;;;;;;1999.90;999.90;;;;;;;-3.65;62.36;99852.81;4942062;28;97214;-73
2021/12/08 03:45:06;;;;;;;1999.90;999.90;;;;;;;-3.64;62.63;99849.44;4958295;28;97235;-73
2021/12/08 03:47:36;;;;;;;1999.90;999.90;;;;;;;-3.66;62.20;99840.63;4943332;28;98351;-74
2021/12/08 03:50:06;;;;;;;1999.90;999.90;;;;;;;-3.65;62.43;99850.22;4942319;28;98958;-73
2021/12/08 03:52:36;;;;;;;1999.90;999.90;;;;;;;-3.68;62.53;99847.44;4942522;28;97625;-72
2021/12/08 03:55:06;;;;;;;1999.90;999.90;;;;;;;-3.72;62.85;99850.66;4941854;28;96942;-74
2021/12/08 03:57:35;;;;;;;1999.90;999.90;;;;;;;-3.74;62.82;99852.25;4941662;28;98196;-74
2021/12/08 04:00:05;;;;;;;1999.90;999.90;;;;;;;-3.73;62.65;99854.94;4938572;28;97858;-73
2021/12/08 04:02:34;;;;;;;1999.90;999.90;;;;;;;-3.71;62.26;99861.13;4942186;28;98501;-73
2021/12/08 04:05:03;;;;;;;1999.90;999.90;;;;;;;-3.68;62.38;99868.25;4941863;28;97074;-74
2021/12/08 04:07:31;;;;;;;1999.90;999.90;;;;;;;-3.73;62.86;99854.06;4924502;28;100358;-72
2021/12/08 04:10:00;;;;;;;1999.90;999.90;;;;;;;-3.72;62.64;99869.75;4941473;28;100612;-73
2021/12/08 04:12:28;;;;;;;1999.90;999.90;;;;;;;-3.70;62.17;99872.44;4941628;28;97276;-74
2021/12/08 04:14:59;;;;;;;1999.90;999.90;;;;;;;-3.71;62.42;99874.13;4919109;28;97074;-74
2021/12/08 04:17:30;;;;;;;1999.90;999.90;;;;;;;-3.69;62.63;99871.63;4942143;28;99078;-72
2021/12/08 04:19:59;;;;;;;1999.90;999.90;;;;;;;-3.65;62.31;99868.41;4940122;28;99262;-74
2021/12/08 04:22:30;;;;;;;1999.90;999.90;;;;;;;-3.67;62.40;99870.03;4941511;28;97281;-74
2021/12/08 04:24:59;;;;;;;1999.90;999.90;;;;;;;-3.66;62.24;99864.03;4941965;28;97025;-72
2021/12/08 04:27:30;;;;;;;1999.90;999.90;;;;;;;-3.67;62.46;99864.81;4939764;28;100204;-73
2021/12/08 04:29:59;;;;;;;1999.90;999.90;;;;;;;-3.66;62.37;99866.63;4940524;28;99252;-73
2021/12/08 04:32:29;;;;;;;1999.90;999.90;;;;;;;-3.72;62.68;99861.03;4943792;28;97102;-74
2021/12/08 04:34:59;;;;;;;1999.90;999.90;;;;;;;-3.69;62.52;99874.22;4943754;28;98408;-74
2021/12/08 04:37:31;;;;;;;1999.90;999.90;;;;;;;-3.68;62.70;99863.03;4944897;28;99116;-73
2021/12/08 04:40:11;;;;;;;1999.90;999.90;;;;;;;-3.70;62.66;99862.03;4948196;28;97760;-76
2021/12/08 04:42:54;;;;;;;1999.90;999.90;;;;;;;-3.65;62.46;99863.22;4946114;28;96961;-74
2021/12/08 04:45:32;;;;;;;1999.90;999.90;;;;;;;-3.63;62.60;99852.13;4944937;28;97605;-73
2021/12/08 04:48:16;;;;;;;1999.90;999.90;;;;;;;-3.62;62.35;99847.84;4949471;28;97616;-74
2021/12/08 04:51:13;;;;;;;1999.90;999.90;;;;;;;-3.61;62.30;99834.03;4942913;28;99045;-74
2021/12/08 04:54:01;;;;;;;1999.90;999.90;;;;;;;-3.69;62.46;99835.22;4941540;28;97226;-74
2021/12/08 05:02:21;;;;;;;1999.90;999.90;;;;;;;-3.78;62.74;99840.75;4947400;28;98125;-74
2021/12/08 05:05:05;;;;;;;1999.90;999.90;;;;;;;-3.77;62.85;99852.97;4944482;28;96970;-73
2021/12/08 05:07:48;;;;;;;1999.90;999.90;;;;;;;-3.78;62.33;99850.25;4948175;28;97164;-73
2021/12/08 05:10:19;;;;;;;1999.90;999.90;;;;;;;-3.77;62.79;99849.47;4950982;28;97944;-73
2021/12/08 05:12:50;;;;;;;1999.90;999.90;;;;;;;-3.78;62.44;99852.84;4948791;28;97600;-75
2021/12/08 05:15:22;;;;;;;1999.90;999.90;;;;;;;-3.73;62.29;99854.06;4947139;28;97166;-73
2021/12/08 05:17:55;;;;;;;1999.90;999.90;;;;;;;-3.71;62.46;99853.34;4946974;28;98520;-75
2021/12/08 05:20:26;;;;;;;1999.90;999.90;;;;;;;-3.68;62.25;99850.94;4943356;28;99551;-74
2021/12/08 05:22:57;;;;;;;1999.90;999.90;;;;;;;-3.65;62.17;99853.72;4945316;28;97625;-75
2021/12/08 05:25:28;;;;;;;1999.90;999.90;;;;;;;-3.63;62.11;99862.53;4943092;28;97555;-75
2021/12/08 05:27:58;;;;;;;1999.90;999.90;;;;;;;-3.61;62.12;99873.00;4943469;28;96880;-73
2021/12/08 05:30:29;;;;;;;1999.90;999.90;;;;;;;-3.61;62.30;99873.00;4942546;28;100341;-77
2021/12/08 05:32:58;;;;;;;1999.90;999.90;;;;;;;-3.60;62.29;99880.91;4941759;28;98407;-74
2021/12/08 05:35:27;;;;;;;1999.90;999.90;;;;;;;-3.59;62.00;99869.72;4942606;28;97923;-76
2021/12/08 05:37:55;;;;;;;1999.90;999.90;;;;;;;-3.57;61.99;99857.72;4942587;28;97360;-73
2021/12/08 05:40:28;;;;;;;1999.90;999.90;;;;;;;-3.56;61.98;99869.00;4941087;28;100693;-75
2021/12/08 05:42:57;;;;;;;1999.90;999.90;;;;;;;-3.58;62.28;99870.59;4937889;28;99318;-74
2021/12/08 05:45:25;;;;;;;1999.90;999.90;;;;;;;-3.57;62.05;99875.00;4942125;28;97026;-75
2021/12/08 05:47:54;;;;;;;1999.90;999.90;;;;;;;-3.57;62.38;99877.59;4942355;28;97306;-72
2021/12/08 05:50:28;;;;;;;1999.90;999.90;;;;;;;-3.59;61.94;99879.22;4941577;28;99461;-73
2021/12/08 05:52:57;;;;;;;1999.90;999.90;;;;;;;-3.61;62.30;99880.81;4940729;28;100186;-73
2021/12/08 05:55:25;;;;;;;1999.90;999.90;;;;;;;-3.59;62.41;99882.72;4942747;28;97436;-73
2021/12/08 05:57:53;;;;;;;1999.90;999.90;;;;;;;-3.58;62.24;99883.59;4940289;28;97567;-73
2021/12/08 06:00:27;;;;;;;1999.90;999.90;;;;;;;-3.59;62.48;99887.91;4939986;28;100400;-74
2021/12/08 06:02:56;;;;;;;1999.90;999.90;;;;;;;-3.55;61.65;99876.00;4940872;28;100548;-73
2021/12/08 06:05:28;;;;;;;1999.90;999.90;;;;;;;-3.52;62.30;99887.50;4941743;28;97394;-74
2021/12/08 06:07:56;;;;;;;1999.90;999.90;;;;;;;-3.49;62.18;99887.66;4940431;28;97228;-75
2021/12/08 06:10:29;;;;;;;1999.90;999.90;;;;;;;-3.44;61.80;99885.38;4934889;28;98820;-75
2021/12/08 06:12:58;;;;;;;1999.90;999.90;;;;;;;-3.41;61.66;99890.75;4943402;28;98758;-75
2021/12/08 06:15:26;;;;;;;1999.90;999.90;;;;;;;-3.39;61.99;99894.34;4945972;28;97283;-75
2021/12/08 06:17:54;;;;;;;1999.90;999.90;;;;;;;-3.40;61.96;99897.75;4943751;28;96966;-75
2021/12/08 06:20:23;;;;;;;1999.90;999.90;;;;;;;-3.41;61.66;99903.75;4942024;28;97914;-73
2021/12/08 06:22:56;;;;;;;1999.90;999.90;;;;;;;-3.41;61.67;99908.94;4944003;28;97690;-72
2021/12/08 06:25:25;;;;;;;1999.90;999.90;;;;;;;-3.37;61.90;99908.34;4943508;28;97076;-73
2021/12/08 06:27:53;;;;;;;1999.90;999.90;;;;;;;-3.35;61.32;99892.00;4944415;28;97211;-72
2021/12/08 06:30:24;;;;;;;1999.90;999.90;;;;;;;-3.32;61.84;99897.41;4945417;28;97967;-74
2021/12/08 06:32:52;;;;;;;1999.90;999.90;;;;;;;-3.29;61.70;99901.88;4935508;28;98449;-76
2021/12/08 06:35:24;;;;;;;1999.90;999.90;;;;;;;-3.28;61.81;99908.91;4942344;28;98557;-74
2021/12/08 06:37:54;;;;;;;1999.90;999.90;;;;;;;-3.25;61.87;99911.69;4946650;28;97811;-75
2021/12/08 06:40:24;;;;;;;1999.90;999.90;;;;;;;-3.23;61.08;99904.88;4952508;28;97883;-74
2021/12/08 06:42:55;;;;;;;1999.90;999.90;;;;;;;-3.22;61.58;99901.50;4969188;28;98689;-77
2021/12/08 06:45:26;;;;;;;1999.90;999.90;;;;;;;-3.22;61.44;99902.38;4954377;28;96770;-75
2021/12/08 06:47:55;;;;;;;1999.90;999.90;;;;;;;-3.25;61.55;99896.06;4944855;28;96774;-72
2021/12/08 06:50:26;;;;;;;1999.90;999.90;;;;;;;-3.26;61.94;99895.22;4944206;28;99088;-72
2021/12/08 06:52:56;;;;;;;1999.90;999.90;;;;;;;-3.25;61.25;99893.47;4945251;28;97849;-74
2021/12/08 06:55:29;;;;;;;1999.90;999.90;;;;;;;-3.24;61.45;99895.28;4946434;28;97006;-74
2021/12/08 06:57:59;;;;;;;1999.90;999.90;;;;;;;-3.24;61.87;99901.38;4945098;28;98396;-75
2021/12/08 07:00:47;;;;;;;1999.90;999.90;;;;;;;-3.26;61.44;99902.09;4945476;28;97706;-74
2021/12/08 07:03:32;;;;;;;1999.90;999.90;;;;;;;-3.32;61.82;99896.50;4943429;28;99524;-74
2021/12/08 07:06:09;;;;;;;1999.90;999.90;;;;;;;-3.35;61.79;99912.81;4944350;28;96851;-74
2021/12/08 07:08:46;;;;;;;1999.90;999.90;;;;;;;-3.34;61.70;99905.91;4945286;28;97085;-74
2021/12/08 07:11:17;;;;;;;1999.90;999.90;;;;;;;-3.30;62.13;99906.22;4944745;28;100627;-73
2021/12/08 07:13:47;;;;;;;1999.90;999.90;;;;;;;-3.27;62.26;99906.41;4943829;28;99715;-74
2021/12/08 07:16:29;;;;;;;1999.90;999.90;;;;;;;-3.25;61.84;99904.78;4943833;28;98470;-75
2021/12/08 07:19:02;;;;;;;1999.90;999.90;;;;;;;-3.24;61.47;99905.69;4944569;28;97640;-75
2021/12/08 07:21:38;;;;;;;1999.90;999.90;;;;;;;-3.25;61.91;99907.38;4944989;28;98770;-73
2021/12/08 07:24:34;;;;;;;1999.90;999.90;;;;;;;-3.23;61.43;99895.38;4945655;28;97515;-74
2021/12/08 07:27:05;;;;;;;1999.90;999.90;;;;;;;-3.23;61.48;99891.88;4944244;28;97150;-76
2021/12/08 07:29:36;;;;;;;1999.90;999.90;;;;;;;-3.26;61.83;99892.59;4944857;28;97515;-75
2021/12/08 07:32:06;;;;;;;1999.90;999.90;;;;;;;-3.29;61.79;99894.09;4941227;28;97920;-74
2021/12/08 07:34:36;;;;;;;1999.90;999.90;;;;;;;-3.30;61.63;99892.31;4944330;28;98324;-74
2021/12/08 07:37:12;;;;;;;1999.90;999.90;;;;;;;-3.31;62.29;99882.72;4943544;28;97719;-75
2021/12/08 07:39:48;;;;;;;1999.90;999.90;;;;;;;-3.35;62.62;99879.00;4943745;28;98332;-73
2021/12/08 07:42:20;;;;;;;1999.90;999.90;;;;;;;-3.36;62.26;99876.31;4944551;28;97687;-74
2021/12/08 07:44:52;;;;;;;1999.90;999.90;;;;;;;-3.37;61.88;99874.53;4944939;28;98134;-74
2021/12/08 07:47:22;;;;;;;1999.90;999.90;;;;;;;-3.38;62.23;99881.44;4943965;28;96993;-74
2021/12/08 07:49:53;;;;;;;1999.90;999.90;;;;;;;-3.39;62.25;99874.44;4942115;28;97396;-74
2021/12/08 07:52:23;;;;;;;1999.90;999.90;;;;;;;-3.43;62.51;99876.75;4941355;28;99368;-74
2021/12/08 07:54:53;;;;;;;1999.90;999.90;;;;;;;-3.48;62.10;99867.78;4942062;28;98833;-74
2021/12/08 07:57:23;;;;;;;1999.90;999.90;;;;;;;-3.50;62.39;99869.38;4944770;28;97281;-75
2021/12/08 07:59:55;;;;;;;1999.90;999.90;;;;;;;-3.51;62.00;99854.59;4943044;28;97134;-74
2021/12/08 08:02:25;;;;;;;1999.90;999.90;;;;;;;-3.52;62.18;99870.97;4943555;28;98301;-73
2021/12/08 08:04:57;;;;;;;1999.90;999.90;;;;;;;-3.52;62.12;99868.38;4942438;28;96996;-74
2021/12/08 08:07:26;;;;;;;1999.90;999.90;;;;;;;-3.54;62.42;99863.09;4942919;28;96963;-74
2021/12/08 08:10:01;;;;;;;1999.90;999.90;;;;;;;-3.52;62.82;99858.88;4943479;28;97618;-74
2021/12/08 08:12:32;;;;;;;1999.90;999.90;;;;;;;-3.55;62.83;99856.09;4944019;28;97621;-74
2021/12/08 08:15:06;;;;;;;1999.90;999.90;;;;;;;-3.55;62.79;99858.72;4943668;28;97582;-74
2021/12/08 08:17:39;;;;;;;1999.90;999.90;;;;;;;-3.55;63.02;99852.59;4942969;28;97176;-75
2021/12/08 08:20:11;;;;;;;1999.90;999.90;;;;;;;-3.56;62.62;99866.38;4943838;28;97727;-73
2021/12/08 08:22:39;;;;;;;1999.90;999.90;;;;;;;-3.53;62.66;99864.88;4942945;28;98428;-73
2021/12/08 08:25:11;;;;;;;1999.90;999.90;;;;;;;-3.50;62.68;99870.28;4942137;28;101588;-73
2021/12/08 08:27:39;;;;;;;1999.90;999.90;;;;;;;-3.52;62.59;99866.69;4943562;28;97202;-75
2021/12/08 08:30:09;;;;;;;1999.90;999.90;;;;;;;-3.51;62.86;99867.59;4944430;28;97360;-73
2021/12/08 08:32:39;;;;;;;1999.90;999.90;;;;;;;-3.48;62.31;99865.16;4944122;28;98283;-73
2021/12/08 08:35:12;;;;;;;1999.90;999.90;;;;;;;-3.47;62.44;99865.25;4942828;28;97894;-73
2021/12/08 08:37:40;;;;;;;1999.90;999.90;;;;;;;-3.44;62.29;99864.56;4943814;28;97868;-74
2021/12/08 08:40:16;;;;;;;1999.90;999.90;;;;;;;-3.43;62.17;99855.94;4943842;28;97334;-75
2021/12/08 08:42:44;;;;;;;1999.90;999.90;;;;;;;-3.41;62.18;99859.53;4943655;28;97534;-76
2021/12/08 08:45:15;;;;;;;1999.90;999.90;;;;;;;-3.38;61.94;99859.72;4927382;28;100644;-74
2021/12/08 08:47:47;;;;;;;1999.90;999.90;;;;;;;-3.35;62.49;99850.41;4944898;28;96978;-74
2021/12/08 08:50:19;;;;;;;1999.90;999.90;;;;;;;-3.34;62.36;99853.91;4946210;28;96730;-74
2021/12/08 08:52:52;;;;;;;1999.90;999.90;;;;;;;-3.34;62.30;99861.72;4944221;28;97585;-74
2021/12/08 08:55:46;;;;;;;1999.90;999.90;;;;;;;-3.33;62.11;99884.31;4948465;28;98950;-74
2021/12/08 08:58:14;;;;;;;1999.90;999.90;;;;;;;-3.30;61.83;99877.59;4953376;28;97637;-75
2021/12/08 09:00:44;;;;;;;1999.90;999.90;;;;;;;-3.28;61.95;99882.91;4928898;28;97696;-74
2021/12/08 09:03:16;;;;;;;1999.90;999.90;;;;;;;-3.27;61.91;99879.47;4951283;28;97630;-74
2021/12/08 09:05:49;;;;;;;1999.90;999.90;;;;;;;-3.24;61.74;99882.28;4953842;28;97586;-75
2021/12/08 09:08:23;;;;;;;1999.90;999.90;;;;;;;-3.21;61.80;99874.66;4954482;28;97302;-73
2021/12/08 09:10:55;;;;;;;1999.90;999.90;;;;;;;-3.18;62.13;99880.94;4950686;28;96821;-75
2021/12/08 09:13:28;;;;;;;1999.90;999.90;;;;;;;-3.15;61.96;99877.66;4948128;28;98665;-75
2021/12/08 09:15:59;;;;;;;1999.90;999.90;;;;;;;-3.14;61.23;99871.63;4944016;28;99350;-76
2021/12/08 09:18:34;;;;;;;1999.90;999.90;;;;;;;-3.17;61.60;99876.66;4945034;28;97380;-72
2021/12/08 09:21:13;;;;;;;1999.90;999.90;;;;;;;-3.24;62.25;99877.09;4944166;28;96922;-75
2021/12/08 09:23:46;;;;;;;1999.90;999.90;;;;;;;-3.22;62.51;99867.69;4942255;28;99215;-75
2021/12/08 09:26:19;;;;;;;1999.90;999.90;;;;;;;-3.18;61.83;99864.44;4944338;28;98190;-75
2021/12/08 09:28:50;;;;;;;1999.90;999.90;;;;;;;-3.16;61.68;99858.53;4943205;28;97518;-74
2021/12/08 09:31:24;;;;;;;1999.90;999.90;;;;;;;-3.10;61.67;99855.41;4944310;28;96873;-76
2021/12/08 09:33:55;;;;;;;1999.90;999.90;;;;;;;-3.10;61.95;99855.41;4942361;28;97244;-75
2021/12/08 09:36:26;;;;;;;1999.90;999.90;;;;;;;-3.08;62.04;99859.00;4943848;28;99060;-74
2021/12/08 09:38:59;;;;;;;1999.90;999.90;;;;;;;-3.08;61.45;99852.09;4941341;28;97468;-74
2021/12/08 09:41:36;;;;;;;1999.90;999.90;;;;;;;-3.07;62.07;99852.97;4943987;28;97017;-74
2021/12/08 09:44:08;;;;;;;1999.90;999.90;;;;;;;-3.06;62.31;99854.78;4942951;28;97759;-75
2021/12/08 09:46:39;;;;;;;1999.90;999.90;;;;;;;-3.08;62.17;99859.91;4943610;28;98061;-74
2021/12/08 09:49:09;;;;;;;1999.90;999.90;;;;;;;-3.09;62.35;99851.97;4943344;28;96881;-75
2021/12/08 09:51:37;;;;;;;1999.90;999.90;;;;;;;-3.09;62.31;99850.28;4943692;28;97630;-74
2021/12/08 09:54:05;;;;;;;1999.90;999.90;;;;;;;-3.10;62.40;99852.78;4939113;28;100218;-75
2021/12/08 09:56:35;;;;;;;1999.90;999.90;;;;;;;-3.10;62.34;99845.00;4939919;28;101465;-75
2021/12/08 09:59:05;;;;;;;1999.90;999.90;;;;;;;-3.09;62.26;99846.78;4940704;28;98060;-75
2021/12/08 10:01:37;;;;;;;1999.90;999.90;;;;;;;-3.10;62.20;99821.56;4942215;28;97194;-75
2021/12/08 10:04:05;;;;;;;1999.90;999.90;;;;;;;-3.09;62.19;99813.84;4940059;28;99745;-74
2021/12/08 10:07:22;;;;;;;1999.90;999.90;;;;;;;-3.11;62.60;99830.19;4940077;28;99299;-74
2021/12/08 10:09:50;;;;;;;1999.90;999.90;;;;;;;-3.14;62.05;99830.91;4941118;28;96976;-75
2021/12/08 10:12:19;;;;;;;1999.90;999.90;;;;;;;-3.12;62.22;99833.59;4923936;28;97233;-74
2021/12/08 10:14:47;;;;;;;1999.90;999.90;;;;;;;-3.11;61.90;99836.28;4937563;28;99858;-74
2021/12/08 10:17:15;;;;;;;1999.90;999.90;;;;;;;-3.09;62.37;99838.97;4938394;28;100534;-74
2021/12/08 10:19:44;;;;;;;1999.90;999.90;;;;;;;-3.04;62.01;99845.38;4938121;28;97693;-75
2021/12/08 10:22:19;;;;;;;1999.90;999.90;;;;;;;-3.02;61.71;99839.44;4940958;28;99267;-73
2021/12/08 10:25:04;;;;;;;1999.90;999.90;;;;;;;-3.02;62.18;99843.75;4940736;28;97755;-74
2021/12/08 10:27:34;;;;;;;1999.90;999.90;;;;;;;-2.99;61.65;99841.31;4941993;28;98918;-74
2021/12/08 10:30:20;;;;;;;1999.90;999.90;;;;;;;-3.02;62.16;99839.44;4940812;28;96888;-75
2021/12/08 10:32:49;;;;;;;1999.90;999.90;;;;;;;-2.99;61.69;99834.44;4943069;28;97515;-74
2021/12/08 10:35:44;;;;;;;1999.90;999.90;;;;;;;-2.95;61.73;99838.97;4941150;28;97717;-73
2021/12/08 10:38:14;;;;;;;1999.90;999.90;;;;;;;-2.91;61.48;99832.28;4943316;28;97612;-74
2021/12/08 10:40:57;;;;;;;1999.90;999.90;;;;;;;-2.94;61.83;99838.19;4941538;28;97340;-74
2021/12/08 10:43:26;;;;;;;1999.90;999.90;;;;;;;-2.89;61.67;99826.34;4941902;28;97964;-74
2021/12/08 10:46:07;;;;;;;1999.90;999.90;;;;;;;-2.86;61.75;99823.94;4944587;28;98583;-73
2021/12/08 10:48:41;;;;;;;1999.90;999.90;;;;;;;-2.81;61.24;99811.16;4943423;28;99272;-73
2021/12/08 10:54:27;;;;;;;1999.90;999.90;;;;;;;-2.79;61.47;99806.97;4943595;28;97701;-73
2021/12/08 10:56:56;;;;;;;1999.90;999.90;;;;;;;-2.77;61.29;99794.94;4960871;28;98994;-74
2021/12/08 10:59:26;;;;;;;1999.90;999.90;;;;;;;-2.76;61.27;99785.44;4942646;28;99185;-74
2021/12/08 11:01:59;;;;;;;1999.90;999.90;;;;;;;-2.70;61.21;99767.53;4945253;28;97017;-73
2021/12/08 11:04:31;;;;;;;1999.90;999.90;;;;;;;-2.70;61.46;99755.41;4931639;28;97643;-74
2021/12/08 11:07:06;;;;;;;1999.90;999.90;;;;;;;-2.75;61.44;99764.69;4945007;28;97787;-77
2021/12/08 11:09:42;;;;;;;1999.90;999.90;;;;;;;-2.77;61.56;99766.28;4945447;28;97539;-72
2021/12/08 11:12:16;;;;;;;1999.90;999.90;;;;;;;-2.75;61.36;99771.59;4935467;28;97029;-74
2021/12/08 11:14:47;;;;;;;1999.90;999.90;;;;;;;-2.75;61.19;99763.78;4943875;28;97484;-73
2021/12/08 11:17:25;;;;;;;1999.90;999.90;;;;;;;-2.75;61.27;99772.50;4943589;28;99885;-75
2021/12/08 11:20:15;;;;;;;1999.90;999.90;;;;;;;-2.74;61.62;99775.97;4943823;28;97967;-74
2021/12/08 11:22:44;;;;;;;1999.90;999.90;;;;;;;-2.71;61.70;99787.50;4943462;28;97033;-75
2021/12/08 11:25:21;;;;;;;1999.90;999.90;;;;;;;-2.67;61.37;99778.16;4944660;28;97938;-74
2021/12/08 11:27:49;;;;;;;1999.90;999.90;;;;;;;-2.61;61.50;99776.78;4944874;28;98700;-74
2021/12/08 11:30:25;;;;;;;1999.90;999.90;;;;;;;-2.56;61.12;99777.06;4943886;28;98884;-74
2021/12/08 11:33:11;;;;;;;1999.90;999.90;;;;;;;-2.52;61.49;99784.19;4946055;28;97877;-73
2021/12/08 11:35:39;;;;;;;1999.90;999.90;;;;;;;-2.46;60.95;99793.28;4945556;28;97101;-74
2021/12/08 11:38:07;;;;;;;1999.90;999.90;;;;;;;-2.39;61.06;99792.81;4943101;28;100537;-73